Time;durP1;ratioP1;P1;durP2;ratioP2;P2;SDS_P1;SDS_P2;PMS_P1;PMS_P2;Temp;Humidity;BMP_temperature;BMP_pressure;BME280_temperature;BME280_humidity;BME280_pressure;Samples;Min_cycle;Max_cycle;Signal;HPM_P1;HPM_P2
2022/01/02 00:00:40;;;;;;;9.70;5.00;;;8.20;97.30;;;;;;5024243;28;20439;-79
2022/01/02 00:03:07;;;;;;;11.10;3.90;;;8.10;97.30;;;;;;5024230;28;20896;-79
2022/01/02 00:05:38;;;;;;;9.87;4.57;;;8.10;97.30;;;;;;5025520;28;20491;-79
2022/01/02 00:08:09;;;;;;;8.90;4.37;;;8.00;97.30;;;;;;5023872;28;20419;-84
2022/01/02 00:10:45;;;;;;;8.60;4.40;;;8.00;97.30;;;;;;5025567;28;20813;-85
2022/01/02 00:13:20;;;;;;;7.90;5.27;;;8.00;97.30;;;;;;5021646;28;20480;-84
2022/01/02 00:15:47;;;;;;;10.73;4.07;;;8.00;97.30;;;;;;5022121;28;20467;-84
2022/01/02 00:18:15;;;;;;;8.57;3.80;;;8.00;97.30;;;;;;5003317;28;20416;-85
2022/01/02 00:20:47;;;;;;;6.50;3.53;;;8.00;97.30;;;;;;5020837;28;20810;-85
2022/01/02 00:23:20;;;;;;;6.43;3.77;;;8.00;97.30;;;;;;5020805;28;20419;-85
2022/01/02 00:25:51;;;;;;;8.00;4.50;;;8.00;97.30;;;;;;5020268;28;20470;-85
2022/01/02 00:28:18;;;;;;;5.73;4.00;;;8.10;97.30;;;;;;5020613;28;20954;-85
2022/01/02 00:30:47;;;;;;;10.53;4.50;;;8.10;97.30;;;;;;5019923;28;20479;-85
2022/01/02 00:33:12;;;;;;;11.30;4.50;;;8.20;97.30;;;;;;5020380;28;20419;-85
2022/01/02 00:35:38;;;;;;;11.00;4.77;;;8.20;97.30;;;;;;5002905;28;20460;-84
2022/01/02 00:38:05;;;;;;;7.60;3.53;;;8.20;97.30;;;;;;5012796;28;20633;-81
2022/01/02 00:40:34;;;;;;;9.67;4.77;;;8.20;97.30;;;;;;5037094;28;20505;-80
2022/01/02 00:43:03;;;;;;;5.93;3.80;;;8.20;97.30;;;;;;5019035;28;20411;-80
2022/01/02 00:45:37;;;;;;;7.10;3.80;;;8.20;97.30;;;;;;5019108;28;20497;-81
2022/01/02 00:48:21;;;;;;;7.37;4.20;;;8.20;97.30;;;;;;5019738;28;20947;-81
2022/01/02 00:50:51;;;;;;;11.43;3.97;;;8.20;97.30;;;;;;5019301;28;20443;-81
2022/01/02 00:53:18;;;;;;;6.57;3.57;;;8.20;97.30;;;;;;5017127;28;20504;-80
2022/01/02 00:55:46;;;;;;;9.23;3.83;;;8.20;97.30;;;;;;5017072;28;20463;-80
2022/01/02 00:58:14;;;;;;;8.67;4.10;;;8.10;97.30;;;;;;5017925;28;20449;-81
2022/01/02 01:00:47;;;;;;;8.13;4.13;;;8.20;97.30;;;;;;5018393;28;20676;-81
2022/01/02 01:03:20;;;;;;;9.13;4.03;;;8.10;97.30;;;;;;5017622;28;20419;-80
2022/01/02 01:05:47;;;;;;;10.93;4.53;;;8.10;97.30;;;;;;5017752;28;20449;-81
2022/01/02 01:08:12;;;;;;;6.10;3.23;;;8.20;97.30;;;;;;5018225;28;20427;-84
2022/01/02 01:10:42;;;;;;;4.03;3.33;;;8.20;97.30;;;;;;5023757;28;20465;-81
2022/01/02 01:13:09;;;;;;;11.13;4.47;;;8.20;97.30;;;;;;5024417;28;20195;-82
2022/01/02 01:15:36;;;;;;;8.33;5.10;;;8.20;97.30;;;;;;5023591;28;20466;-82
2022/01/02 01:18:03;;;;;;;8.23;4.00;;;8.10;97.30;;;;;;5022953;28;20419;-82
2022/01/02 01:20:36;;;;;;;5.80;3.57;;;8.10;97.30;;;;;;5023716;28;20963;-82
2022/01/02 01:23:02;;;;;;;13.03;4.50;;;8.10;97.30;;;;;;5023034;28;20423;-83
2022/01/02 01:25:28;;;;;;;11.70;4.40;;;8.20;97.30;;;;;;5040225;28;20418;-83
2022/01/02 01:27:54;;;;;;;12.20;4.03;;;8.40;97.30;;;;;;5021380;28;20416;-82
2022/01/02 01:30:22;;;;;;;7.50;3.40;;;8.50;97.30;;;;;;5022088;28;20266;-83
2022/01/02 01:32:48;;;;;;;6.53;3.50;;;8.60;97.30;;;;;;5022075;28;20552;-82
2022/01/02 01:35:14;;;;;;;5.83;3.67;;;8.60;97.30;;;;;;5006952;28;20420;-82
2022/01/02 01:37:40;;;;;;;5.17;3.20;;;8.70;97.30;;;;;;5002302;28;20192;-82
2022/01/02 01:40:08;;;;;;;9.43;3.93;;;8.80;97.30;;;;;;5003074;28;20420;-82
2022/01/02 01:42:37;;;;;;;5.17;3.70;;;8.80;97.30;;;;;;5003461;28;20423;-82
2022/01/02 01:47:43;;;;;;;11.97;3.80;;;8.80;97.30;;;;;;5021459;28;20485;-83
2022/01/02 01:50:09;;;;;;;4.37;2.83;;;8.80;97.30;;;;;;5003041;28;20458;-82
2022/01/02 01:52:35;;;;;;;10.03;3.23;;;8.80;97.30;;;;;;5022104;28;20419;-82
2022/01/02 01:55:00;;;;;;;10.20;3.90;;;8.80;97.30;;;;;;5021702;28;20418;-82
2022/01/02 01:57:26;;;;;;;5.70;2.93;;;8.80;97.30;;;;;;5021443;28;20254;-82
2022/01/02 01:59:51;;;;;;;8.90;3.10;;;8.80;97.30;;;;;;5022198;28;20212;-82
2022/01/02 02:02:17;;;;;;;4.80;3.10;;;8.80;97.30;;;;;;5018241;28;20209;-83
2022/01/02 02:04:43;;;;;;;6.73;3.10;;;8.80;97.30;;;;;;5017609;28;20279;-84
2022/01/02 02:07:09;;;;;;;7.23;3.77;;;8.80;97.30;;;;;;5017795;28;20180;-82
2022/01/02 02:10:22;;;;;;;5.50;3.27;;;8.80;97.30;;;;;;5044491;23;20873;-89
2022/01/02 02:13:45;;;;;;;6.23;2.97;;;8.80;97.30;;;;;;4993152;28;20239;-89
2022/01/02 02:16:25;;;;;;;8.53;3.00;;;8.80;97.30;;;;;;4915829;29;20452;-90
2022/01/02 02:19:16;;;;;;;;;;;;;;;;;;;;;
2022/01/02 02:21:45;;;;;;;7.73;3.03;;;8.90;97.30;;;;;;4932346;29;20841;-89
2022/01/02 02:24:25;;;;;;;8.67;3.10;;;8.90;97.30;;;;;;4916798;29;20419;-89
2022/01/02 02:27:05;;;;;;;7.80;3.37;;;8.90;97.30;;;;;;4916602;29;20807;-89
2022/01/02 02:29:43;;;;;;;3.83;2.50;;;9.00;97.30;;;;;;4917408;29;20485;-89
2022/01/02 02:32:15;;;;;;;4.17;2.70;;;9.00;97.30;;;;;;4917070;29;20438;-89
2022/01/02 02:34:45;;;;;;;5.13;2.73;;;9.00;97.30;;;;;;4916919;29;20423;-89
2022/01/02 02:37:14;;;;;;;5.90;2.70;;;9.00;97.30;;;;;;4917715;29;20440;-89
2022/01/02 02:39:45;;;;;;;5.73;3.13;;;9.10;97.30;;;;;;4944056;28;21029;-89
2022/01/02 02:42:27;;;;;;;9.53;3.20;;;9.10;97.30;;;;;;4976286;28;20421;-90
2022/01/02 02:48:57;;;;;;;7.83;3.10;;;9.00;97.30;;;;;;4976636;28;20420;-89
2022/01/02 02:50:55;;;;;;;5.23;2.50;;;9.00;97.30;;;;;;4993668;28;20984;-88
2022/01/02 02:53:23;;;;;;;8.30;2.77;;;9.00;97.30;;;;;;4969904;28;20410;-89
2022/01/02 02:55:57;;;;;;;5.83;2.90;;;9.00;97.30;;;;;;4956989;28;20453;-90
2022/01/02 03:01:36;;;;;;;4.23;3.00;;;9.00;97.30;;;;;;4974461;28;20505;-89
2022/01/02 03:04:05;;;;;;;3.90;2.37;;;9.10;97.30;;;;;;4957232;28;20515;-89
2022/01/02 03:07:06;;;;;;;5.03;2.70;;;9.10;97.30;;;;;;4957055;28;20458;-89
2022/01/02 03:09:58;;;;;;;;;;;;;;;;;;;;;
2022/01/02 03:12:56;;;;;;;4.70;2.40;;;9.20;97.30;;;;;;4895362;29;20441;-90
2022/01/02 03:15:25;;;;;;;4.10;2.50;;;9.20;97.30;;;;;;4931963;29;20428;-91
2022/01/02 03:18:26;;;;;;;3.60;2.30;;;9.20;97.30;;;;;;4938874;29;20795;-89
2022/01/02 03:20:55;;;;;;;7.57;3.40;;;9.20;97.30;;;;;;4933640;29;20454;-90
2022/01/02 03:23:35;;;;;;;5.43;2.90;;;9.20;97.30;;;;;;4938328;29;20861;-92
2022/01/02 03:26:36;;;;;;;7.43;2.50;;;9.20;97.30;;;;;;4949928;28;20430;-91
2022/01/02 03:29:04;;;;;;;4.57;2.60;;;9.10;97.30;;;;;;4962974;28;20434;-93
2022/01/02 03:31:56;;;;;;;3.10;2.40;;;9.10;97.30;;;;;;4975779;28;20426;-93
2022/01/02 03:34:25;;;;;;;7.50;2.53;;;9.10;97.30;;;;;;4956206;28;20486;-92
2022/01/02 03:36:54;;;;;;;5.43;2.50;;;9.00;97.30;;;;;;4957677;29;20500;-92
2022/01/02 03:39:26;;;;;;;5.50;2.70;;;9.00;97.30;;;;;;4955272;29;20484;-90
2022/01/02 03:41:56;;;;;;;4.70;3.17;;;9.00;97.30;;;;;;4961077;28;20423;-88
2022/01/02 03:44:45;;;;;;;5.40;2.97;;;9.00;97.30;;;;;;4956465;29;20478;-92
2022/01/02 03:47:14;;;;;;;6.57;3.10;;;9.00;97.30;;;;;;4956461;29;20414;-92
2022/01/02 03:49:45;;;;;;;5.80;2.83;;;9.00;97.30;;;;;;4956741;29;21024;-92
2022/01/02 03:52:46;;;;;;;5.37;2.67;;;9.00;97.30;;;;;;4956406;29;20430;-91
2022/01/02 03:56:16;;;;;;;4.53;2.10;;;9.00;97.30;;;;;;4919195;29;20427;-89
2022/01/02 03:59:04;;;;;;;6.63;2.73;;;9.00;97.30;;;;;;4861233;29;20954;-89
2022/01/02 04:01:36;;;;;;;5.23;2.80;;;8.90;97.30;;;;;;4915390;29;20428;-89
2022/01/02 04:04:35;;;;;;;4.13;2.40;;;8.90;97.30;;;;;;4919798;29;20515;-89
2022/01/02 04:07:15;;;;;;;6.07;3.13;;;8.90;97.30;;;;;;4919578;29;20432;-89
2022/01/02 04:10:14;;;;;;;5.87;2.90;;;8.90;97.30;;;;;;4917821;29;20474;-89
2022/01/02 04:12:46;;;;;;;7.60;2.87;;;8.80;97.30;;;;;;4918455;29;20478;-90
2022/01/02 04:15:45;;;;;;;8.33;3.63;;;8.90;97.30;;;;;;4918250;29;20522;-89
2022/01/02 04:18:25;;;;;;;7.63;2.60;;;8.90;97.30;;;;;;4925116;28;20557;-89
2022/01/02 04:21:26;;;;;;;8.17;3.83;;;8.90;97.30;;;;;;4974782;28;20537;-90
2022/01/02 04:23:55;;;;;;;4.50;2.80;;;8.90;97.30;;;;;;4975773;28;20662;-90
2022/01/02 04:26:26;;;;;;;4.00;2.60;;;8.90;97.30;;;;;;4975352;28;20513;-89
2022/01/02 04:28:54;;;;;;;4.13;3.00;;;8.90;97.30;;;;;;4975262;28;20425;-90
2022/01/02 04:31:26;;;;;;;3.73;2.70;;;8.90;97.30;;;;;;4974620;28;20469;-90
2022/01/02 04:33:55;;;;;;;6.23;3.20;;;8.90;97.30;;;;;;4975018;28;20916;-89
2022/01/02 04:36:26;;;;;;;7.33;3.70;;;8.90;97.30;;;;;;4975357;28;20465;-89
2022/01/02 04:38:55;;;;;;;10.23;3.67;;;8.90;97.30;;;;;;4975592;28;20449;-89
2022/01/02 04:41:56;;;;;;;8.63;3.50;;;8.90;97.30;;;;;;4974850;28;20924;-89
2022/01/02 04:44:36;;;;;;;6.87;3.30;;;9.00;97.30;;;;;;4975435;28;20429;-89
2022/01/02 04:47:05;;;;;;;7.30;3.67;;;9.00;97.30;;;;;;4991606;28;20420;-89
2022/01/02 04:49:36;;;;;;;13.50;3.33;;;9.00;97.30;;;;;;4972554;28;20450;-89
2022/01/02 04:52:16;;;;;;;7.50;3.97;;;9.00;97.30;;;;;;4974824;28;20414;-89
2022/01/02 04:55:05;;;;;;;10.13;3.93;;;9.00;97.30;;;;;;4975319;28;20446;-90
2022/01/02 04:57:45;;;;;;;7.57;3.80;;;9.00;97.30;;;;;;4967558;28;20477;-89
2022/01/02 05:00:26;;;;;;;8.00;4.33;;;9.00;97.30;;;;;;4975100;28;20940;-90
2022/01/02 05:02:55;;;;;;;7.20;3.43;;;9.00;97.30;;;;;;4974894;28;20452;-89
2022/01/02 05:05:35;;;;;;;8.53;3.80;;;9.00;97.30;;;;;;4975129;28;20425;-90
2022/01/02 05:08:25;;;;;;;8.10;3.90;;;9.00;97.30;;;;;;4975342;28;20951;-88
2022/01/02 05:10:56;;;;;;;6.90;3.60;;;9.10;97.30;;;;;;4974588;28;20632;-90
2022/01/02 05:13:45;;;;;;;6.00;3.40;;;9.10;97.30;;;;;;4975015;28;20469;-90
2022/01/02 05:16:25;;;;;;;11.43;3.47;;;9.10;97.30;;;;;;4971448;28;20469;-89
2022/01/02 05:18:54;;;;;;;7.03;3.53;;;9.10;97.30;;;;;;4975685;28;20413;-89
2022/01/02 05:21:25;;;;;;;5.63;3.37;;;9.10;97.30;;;;;;4971494;28;20476;-89
2022/01/02 05:23:55;;;;;;;10.23;3.77;;;9.10;97.30;;;;;;4973393;28;20414;-88
2022/01/02 05:26:36;;;;;;;9.30;3.80;;;9.10;97.30;;;;;;4973711;28;20696;-89
2022/01/02 05:29:25;;;;;;;7.47;4.10;;;9.20;97.30;;;;;;4973261;28;20449;-90
2022/01/02 05:32:06;;;;;;;10.50;3.70;;;9.20;97.30;;;;;;4968949;28;20426;-89
2022/01/02 05:34:34;;;;;;;10.80;4.73;;;9.20;97.30;;;;;;4953559;29;20423;-90
2022/01/02 05:37:06;;;;;;;10.13;4.30;;;9.20;97.30;;;;;;4953910;28;20997;-90
2022/01/02 05:39:35;;;;;;;8.27;3.90;;;9.20;97.30;;;;;;4975904;28;20441;-90
2022/01/02 05:42:25;;;;;;;7.33;3.50;;;9.20;97.30;;;;;;4992609;28;20422;-90
2022/01/02 05:47:55;;;;;;;19.07;5.37;;;9.20;97.30;;;;;;4971837;28;20428;-89
2022/01/02 05:53:56;;;;;;;6.73;3.43;;;9.10;97.30;;;;;;4913955;29;20420;-90
2022/01/02 05:56:25;;;;;;;7.00;3.47;;;9.10;97.30;;;;;;4905295;29;20836;-89
2022/01/02 05:58:56;;;;;;;7.17;3.33;;;9.10;97.30;;;;;;4895014;29;20422;-88
2022/01/02 06:01:46;;;;;;;7.70;3.80;;;9.10;97.30;;;;;;4895816;29;20416;-89
2022/01/02 06:04:14;;;;;;;10.20;3.83;;;9.10;97.30;;;;;;4894931;29;20693;-88
2022/01/02 06:06:45;;;;;;;8.77;4.40;;;9.10;97.30;;;;;;4914185;29;20440;-88
2022/01/02 06:09:26;;;;;;;10.63;3.80;;;9.10;97.30;;;;;;4897864;29;20925;-85
2022/01/02 06:15:36;;;;;;;6.73;4.07;;;9.00;97.30;;;;;;4928355;29;20471;-89
2022/01/02 06:18:15;;;;;;;8.37;4.20;;;9.00;97.30;;;;;;4897593;29;20437;-89
2022/01/02 06:21:16;;;;;;;12.20;4.00;;;9.00;97.30;;;;;;4898971;29;20440;-90
2022/01/02 06:24:47;;;;;;;;;;;;;;;;;;;;;
2022/01/02 06:27:16;;;;;;;9.33;3.87;;;8.90;97.30;;;;;;4921065;29;20453;-90
2022/01/02 06:29:56;;;;;;;7.80;3.57;;;8.90;97.30;;;;;;4916263;29;20474;-89
2022/01/02 06:32:25;;;;;;;10.10;4.17;;;8.90;97.30;;;;;;4915913;29;20456;-90
2022/01/02 06:34:57;;;;;;;8.83;3.70;;;8.90;97.30;;;;;;4916618;29;20416;-89
2022/01/02 06:37:25;;;;;;;9.50;4.47;;;8.80;97.30;;;;;;4916250;29;20951;-89
2022/01/02 06:39:56;;;;;;;11.10;4.43;;;8.80;97.30;;;;;;4915652;29;20440;-89
2022/01/02 06:42:35;;;;;;;5.80;3.53;;;8.70;97.30;;;;;;4917684;29;20479;-89
2022/01/02 06:45:06;;;;;;;12.70;5.70;;;8.70;97.30;;;;;;4950312;29;20458;-90
2022/01/02 06:47:46;;;;;;;8.30;3.70;;;8.70;97.30;;;;;;4953968;29;20423;-89
2022/01/02 06:50:26;;;;;;;9.23;3.90;;;8.70;97.30;;;;;;4953821;28;20490;-89
2022/01/02 06:56:36;;;;;;;8.03;3.73;;;8.70;97.30;;;;;;4899224;29;20485;-89
2022/01/02 07:06:06;;;;;;;11.20;4.40;;;8.60;97.30;;;;;;4783384;30;20906;-87
2022/01/02 07:08:47;;;;;;;11.33;4.27;;;8.60;97.30;;;;;;4789685;29;20435;-88
2022/01/02 07:12:16;;;;;;;6.20;3.70;;;8.70;97.30;;;;;;4824880;29;20770;-90
2022/01/02 07:14:56;;;;;;;7.87;3.90;;;8.70;97.30;;;;;;4761540;30;20462;-89
2022/01/02 07:20:56;;;;;;;5.67;3.60;;;8.70;97.30;;;;;;4912444;29;20444;-89
2022/01/02 07:23:37;;;;;;;8.47;3.83;;;8.70;97.30;;;;;;4937059;29;20435;-89
2022/01/02 07:26:07;;;;;;;7.73;3.53;;;8.70;97.30;;;;;;4939797;29;20466;-89
2022/01/02 07:28:36;;;;;;;7.17;4.20;;;8.70;97.30;;;;;;4947335;28;20425;-89
2022/01/02 07:31:07;;;;;;;6.93;4.10;;;8.70;97.30;;;;;;4976151;28;20429;-88
2022/01/02 07:34:17;;;;;;;8.53;4.13;;;8.70;97.30;;;;;;4976471;28;20951;-89
2022/01/02 07:36:56;;;;;;;5.00;3.30;;;8.80;97.30;;;;;;4976115;28;21058;-90
2022/01/02 07:39:36;;;;;;;8.73;3.67;;;8.80;97.30;;;;;;4955260;29;20518;-89
2022/01/02 07:42:37;;;;;;;15.10;3.73;;;8.80;97.30;;;;;;4939174;29;20415;-89
2022/01/02 07:45:05;;;;;;;8.10;3.67;;;8.90;97.30;;;;;;4976441;28;20422;-89
2022/01/02 07:47:47;;;;;;;8.23;4.03;;;8.90;97.30;;;;;;4977395;28;20426;-89
2022/01/02 07:50:25;;;;;;;;;;;;;;;;;;;;;
2022/01/02 07:52:57;;;;;;;6.23;3.23;;;8.90;97.30;;;;;;4977230;28;20420;-90
2022/01/02 07:55:37;;;;;;;9.90;3.90;;;9.00;97.30;;;;;;4975984;28;20418;-90
2022/01/02 07:58:05;;;;;;;11.07;4.13;;;9.00;97.30;;;;;;4976175;28;20480;-89
2022/01/02 08:00:46;;;;;;;9.50;3.10;;;9.10;97.30;;;;;;4975198;28;20442;-89
2022/01/02 08:03:26;;;;;;;6.43;3.40;;;9.20;97.30;;;;;;4976278;28;20429;-89
2022/01/02 08:06:06;;;;;;;9.60;5.30;;;9.30;97.30;;;;;;4975935;28;20432;-89
2022/01/02 08:08:54;;;;;;;6.70;2.97;;;9.40;97.30;;;;;;4976030;28;20465;-89
2022/01/02 08:15:37;;;;;;;6.27;3.00;;;9.50;97.30;;;;;;4956966;28;20469;-88
2022/01/02 08:18:36;;;;;;;4.07;2.93;;;9.60;97.30;;;;;;4972311;28;20434;-88
2022/01/02 08:21:01;;;;;;;6.40;3.00;;;9.70;97.30;;;;;;5012234;23;20510;-80
2022/01/02 08:23:27;;;;;;;9.50;3.33;;;9.70;97.30;;;;;;5022147;28;20428;-80
2022/01/02 08:25:52;;;;;;;6.13;3.03;;;9.80;97.30;;;;;;5021005;28;20239;-80
2022/01/02 08:28:19;;;;;;;5.17;2.90;;;9.80;97.30;;;;;;5021857;28;20181;-80
2022/01/02 08:30:47;;;;;;;6.10;3.20;;;9.90;97.30;;;;;;5019701;28;20204;-80
2022/01/02 08:33:13;;;;;;;5.07;2.47;;;9.90;97.30;;;;;;5020077;28;20412;-82
2022/01/02 08:35:39;;;;;;;4.13;2.70;;;9.90;97.30;;;;;;5021928;28;20427;-83
2022/01/02 08:38:05;;;;;;;6.20;3.27;;;10.00;97.30;;;;;;5019396;28;20903;-83
2022/01/02 08:40:31;;;;;;;5.63;3.40;;;10.00;97.30;;;;;;5020045;28;20478;-83
2022/01/02 08:42:56;;;;;;;10.50;3.73;;;10.00;97.30;;;;;;5019519;28;20604;-82
2022/01/02 08:45:23;;;;;;;14.00;3.13;;;10.10;97.30;;;;;;5021354;28;20307;-82
2022/01/02 08:47:49;;;;;;;6.60;3.77;;;10.10;97.30;;;;;;5020844;28;20211;-83
2022/01/02 08:50:14;;;;;;;6.67;3.33;;;10.10;97.30;;;;;;5019970;28;20477;-82
2022/01/02 08:52:40;;;;;;;4.53;3.03;;;10.10;97.30;;;;;;5014157;28;20192;-82
2022/01/02 08:55:06;;;;;;;5.50;2.70;;;10.10;97.30;;;;;;5013618;28;20180;-80
2022/01/02 08:57:32;;;;;;;4.47;2.87;;;10.10;97.30;;;;;;5013128;28;20315;-82
2022/01/02 08:59:58;;;;;;;8.37;3.53;;;10.20;97.30;;;;;;5012654;28;20451;-81
2022/01/02 09:02:23;;;;;;;9.90;3.40;;;10.20;97.30;;;;;;5013052;28;20646;-82
2022/01/02 09:04:49;;;;;;;7.57;3.07;;;10.20;97.30;;;;;;5006524;28;20209;-82
2022/01/02 09:07:15;;;;;;;5.93;2.90;;;10.30;97.30;;;;;;5025898;28;20248;-81
2022/01/02 09:09:41;;;;;;;7.67;3.20;;;10.30;97.30;;;;;;5026272;28;20517;-82
2022/01/02 09:12:08;;;;;;;5.50;3.13;;;10.30;97.30;;;;;;5028770;28;20939;-82
2022/01/02 09:14:35;;;;;;;9.00;3.47;;;10.40;97.30;;;;;;5013392;28;20508;-82
2022/01/02 09:17:00;;;;;;;8.33;3.40;;;10.40;97.30;;;;;;5012938;28;20535;-82
2022/01/02 09:19:26;;;;;;;4.90;2.70;;;10.50;97.30;;;;;;5011419;28;20455;-80
2022/01/02 09:21:52;;;;;;;5.30;2.70;;;10.50;97.30;;;;;;4999152;28;20225;-79
2022/01/02 09:24:17;;;;;;;4.20;2.90;;;10.60;97.30;;;;;;5012353;28;20487;-79
2022/01/02 09:26:43;;;;;;;4.60;2.60;;;10.60;97.30;;;;;;5012370;28;20280;-79
2022/01/02 09:29:09;;;;;;;5.37;2.27;;;10.70;97.30;;;;;;5014021;28;20250;-82
2022/01/02 09:31:35;;;;;;;3.03;2.40;;;10.70;97.30;;;;;;5012489;28;20216;-79
2022/01/02 09:34:01;;;;;;;5.90;2.60;;;10.70;97.30;;;;;;5008278;28;20507;-79
2022/01/02 09:36:27;;;;;;;3.80;2.30;;;10.80;97.30;;;;;;5011596;28;20848;-79
2022/01/02 09:38:54;;;;;;;7.63;3.10;;;10.80;97.30;;;;;;5009392;28;20442;-79
2022/01/02 09:41:20;;;;;;;7.20;3.40;;;10.80;97.30;;;;;;5010985;28;20236;-79
2022/01/02 09:43:47;;;;;;;5.30;3.17;;;10.80;97.30;;;;;;5012451;28;20436;-79
2022/01/02 09:46:20;;;;;;;8.73;3.07;;;10.80;97.30;;;;;;5011029;28;20682;-79
2022/01/02 09:48:48;;;;;;;8.23;2.83;;;10.80;97.30;;;;;;5011646;28;20971;-79
2022/01/02 09:51:16;;;;;;;3.73;2.63;;;10.80;97.30;;;;;;5010780;28;20443;-80
2022/01/02 09:53:44;;;;;;;3.70;2.60;;;10.80;97.30;;;;;;5010472;28;20435;-80
2022/01/02 09:56:09;;;;;;;5.97;2.90;;;10.80;97.30;;;;;;5009511;28;20539;-79
2022/01/02 09:58:35;;;;;;;8.90;4.10;;;10.70;97.30;;;;;;5006257;28;20934;-80
2022/01/02 10:01:01;;;;;;;6.33;3.20;;;10.60;97.30;;;;;;5010610;28;20636;-79
2022/01/02 10:03:41;;;;;;;6.30;3.50;;;10.60;97.30;;;;;;5010174;28;20641;-79
2022/01/02 10:06:07;;;;;;;7.47;3.40;;;10.60;97.30;;;;;;5009851;28;20484;-79
2022/01/02 10:08:35;;;;;;;4.60;3.17;;;10.50;97.30;;;;;;5009659;28;20932;-80
2022/01/02 10:11:16;;;;;;;8.03;3.40;;;10.50;97.30;;;;;;5010411;28;20212;-79
2022/01/02 10:13:46;;;;;;;6.40;4.73;;;10.50;97.30;;;;;;5009512;28;20454;-80
2022/01/02 10:16:42;;;;;;;7.43;3.30;;;10.40;97.30;;;;;;5008074;28;20470;-79
2022/01/02 10:19:29;;;;;;;11.97;3.30;;;10.40;97.30;;;;;;4996219;28;20452;-79
2022/01/02 10:21:59;;;;;;;6.87;3.93;;;10.40;97.30;;;;;;5008272;28;20507;-80
2022/01/02 10:24:33;;;;;;;9.00;4.00;;;10.30;97.30;;;;;;5009733;28;20452;-79
2022/01/02 10:27:11;;;;;;;7.43;3.53;;;10.30;97.30;;;;;;5009381;28;20424;-79
2022/01/02 10:29:54;;;;;;;9.70;4.77;;;10.30;97.30;;;;;;5013363;28;20794;-80
2022/01/02 10:32:32;;;;;;;6.50;3.50;;;10.30;97.30;;;;;;5016038;28;20444;-79
2022/01/02 10:35:21;;;;;;;6.93;3.50;;;10.30;97.30;;;;;;5015476;28;20428;-79
2022/01/02 10:37:55;;;;;;;7.13;3.40;;;10.30;97.30;;;;;;5015129;28;20455;-79
2022/01/02 10:40:40;;;;;;;7.07;3.97;;;10.30;97.30;;;;;;5015258;28;20449;-79
2022/01/02 10:43:33;;;;;;;7.10;3.47;;;10.30;97.30;;;;;;5016061;28;20412;-80
2022/01/02 10:46:03;;;;;;;20.97;3.90;;;10.30;97.30;;;;;;5015314;28;20416;-79
2022/01/02 10:48:41;;;;;;;7.47;3.20;;;10.30;97.30;;;;;;5014419;28;20430;-78
2022/01/02 10:51:14;;;;;;;11.40;3.47;;;10.40;97.30;;;;;;5014730;28;20467;-78
2022/01/02 10:53:55;;;;;;;6.70;4.00;;;10.40;97.30;;;;;;5016155;28;20435;-80
2022/01/02 10:56:22;;;;;;;6.77;3.60;;;10.40;97.30;;;;;;5018412;28;20531;-81
2022/01/02 10:58:48;;;;;;;13.03;4.53;;;10.40;97.30;;;;;;5020911;28;20480;-81
2022/01/02 11:01:14;;;;;;;8.60;3.77;;;10.50;97.30;;;;;;5019026;28;20858;-81
2022/01/02 11:03:44;;;;;;;5.33;3.70;;;10.50;97.30;;;;;;5019059;28;20460;-80
2022/01/02 11:06:13;;;;;;;5.63;3.40;;;10.50;97.30;;;;;;5019490;28;20424;-80
2022/01/02 11:08:44;;;;;;;7.80;4.20;;;10.50;97.30;;;;;;5019506;28;20454;-80
2022/01/02 11:11:09;;;;;;;5.20;3.17;;;10.50;97.30;;;;;;5021896;28;20507;-80
2022/01/02 11:13:35;;;;;;;6.90;4.27;;;10.50;97.30;;;;;;5018865;28;20459;-80
2022/01/02 11:16:02;;;;;;;8.80;4.17;;;10.60;97.30;;;;;;5019265;28;20204;-80
2022/01/02 11:18:32;;;;;;;7.27;3.23;;;10.60;97.30;;;;;;5019414;28;20428;-81
2022/01/02 11:20:57;;;;;;;6.93;4.30;;;10.60;97.30;;;;;;5019054;28;20472;-80
2022/01/02 11:23:30;;;;;;;5.47;3.30;;;10.60;97.30;;;;;;5017339;28;20884;-80
2022/01/02 11:26:21;;;;;;;8.07;3.20;;;10.70;97.30;;;;;;5020636;28;20231;-80
2022/01/02 11:28:48;;;;;;;6.20;3.43;;;10.70;97.30;;;;;;5015586;28;20435;-82
2022/01/02 11:31:32;;;;;;;6.20;3.40;;;10.70;97.30;;;;;;5020676;28;20475;-82
2022/01/02 11:33:58;;;;;;;9.87;4.17;;;10.70;97.30;;;;;;5017004;28;20991;-81
2022/01/02 11:36:30;;;;;;;8.23;4.10;;;10.80;97.30;;;;;;5019176;28;20947;-81
2022/01/02 11:39:03;;;;;;;6.10;2.90;;;10.80;97.30;;;;;;5016280;28;20428;-81
2022/01/02 11:41:35;;;;;;;7.77;3.07;;;10.80;97.30;;;;;;5018907;28;20443;-81
2022/01/02 11:44:00;;;;;;;6.50;3.77;;;10.90;97.30;;;;;;5025062;28;20420;-81
2022/01/02 11:46:31;;;;;;;7.87;4.17;;;10.90;97.30;;;;;;5022634;28;20420;-82
2022/01/02 11:49:08;;;;;;;7.23;3.40;;;10.90;97.30;;;;;;5023449;28;20177;-81
2022/01/02 11:51:48;;;;;;;6.60;3.40;;;11.00;97.30;;;;;;5020323;28;20509;-81
2022/01/02 11:54:33;;;;;;;14.00;3.13;;;11.00;97.30;;;;;;5020710;28;20454;-81
2022/01/02 11:57:02;;;;;;;4.67;3.47;;;11.00;97.30;;;;;;5021284;28;20537;-81
2022/01/02 11:59:42;;;;;;;6.53;3.33;;;11.00;97.30;;;;;;5021933;28;20520;-81
2022/01/02 12:02:26;;;;;;;6.33;3.07;;;11.10;97.30;;;;;;5013365;28;20467;-81
2022/01/02 12:04:58;;;;;;;7.00;3.40;;;11.10;97.30;;;;;;5025318;28;20951;-81
2022/01/02 12:07:32;;;;;;;8.90;2.93;;;11.10;97.30;;;;;;5023181;28;20477;-81
2022/01/02 12:10:21;;;;;;;11.93;4.10;;;11.10;97.30;;;;;;5021669;28;20411;-82
2022/01/02 12:12:56;;;;;;;7.13;3.50;;;11.10;97.30;;;;;;5021805;28;20484;-81
2022/01/02 12:15:22;;;;;;;4.80;2.77;;;11.20;97.30;;;;;;5022872;28;20416;-81
2022/01/02 12:18:06;;;;;;;7.00;3.37;;;11.20;97.30;;;;;;5020657;28;20471;-81
2022/01/02 12:20:50;;;;;;;4.30;3.00;;;11.20;97.30;;;;;;5021921;28;20472;-82
2022/01/02 12:23:31;;;;;;;7.40;2.83;;;11.20;97.30;;;;;;5021964;28;20917;-81
2022/01/02 12:25:57;;;;;;;10.67;3.67;;;11.30;97.30;;;;;;5023114;28;20959;-81
2022/01/02 12:28:23;;;;;;;5.20;3.30;;;11.30;97.30;;;;;;5022049;28;20431;-82
2022/01/02 12:30:52;;;;;;;9.47;3.63;;;11.30;97.30;;;;;;5019819;28;20950;-81
2022/01/02 12:33:30;;;;;;;8.70;3.37;;;11.30;97.30;;;;;;5001573;28;20178;-79
2022/01/02 12:35:56;;;;;;;8.33;3.33;;;11.30;97.30;;;;;;5007227;28;20802;-82
2022/01/02 12:38:22;;;;;;;6.63;3.80;;;11.40;97.30;;;;;;5011023;28;20788;-82
2022/01/02 12:40:53;;;;;;;10.33;3.73;;;11.40;97.30;;;;;;5015884;28;20559;-82
2022/01/02 12:43:25;;;;;;;6.53;3.10;;;11.50;97.30;;;;;;5007910;28;20482;-82
2022/01/02 12:45:55;;;;;;;9.23;3.80;;;11.50;97.30;;;;;;5017763;28;20423;-82
2022/01/02 12:48:35;;;;;;;7.07;3.70;;;11.50;97.30;;;;;;5019008;28;20424;-82
2022/01/02 12:51:14;;;;;;;8.77;3.80;;;11.60;97.30;;;;;;5001978;28;20441;-82
2022/01/02 12:53:41;;;;;;;6.57;3.50;;;11.60;97.30;;;;;;5019000;28;20423;-82
2022/01/02 12:56:06;;;;;;;10.37;4.07;;;11.70;97.30;;;;;;5019349;28;20534;-81
2022/01/02 12:58:34;;;;;;;6.50;3.90;;;11.70;97.30;;;;;;5004380;28;20696;-81
2022/01/02 13:01:04;;;;;;;4.87;3.33;;;11.70;97.30;;;;;;4999307;28;20197;-82
2022/01/02 13:03:30;;;;;;;8.07;4.10;;;11.70;97.30;;;;;;4999188;28;20409;-79
2022/01/02 13:05:58;;;;;;;12.40;3.17;;;11.70;97.30;;;;;;5008386;28;20409;-79
2022/01/02 13:08:27;;;;;;;7.90;3.20;;;11.70;97.30;;;;;;5019401;28;20200;-78
2022/01/02 13:10:53;;;;;;;8.73;3.53;;;11.70;97.30;;;;;;5012435;28;20455;-83
2022/01/02 13:13:30;;;;;;;6.83;3.47;;;11.70;97.30;;;;;;5009893;28;20427;-84
2022/01/02 13:16:03;;;;;;;6.17;3.17;;;11.70;97.30;;;;;;5008568;28;20463;-83
2022/01/02 13:18:29;;;;;;;11.20;4.00;;;11.70;97.30;;;;;;5007722;28;20411;-84
2022/01/02 13:20:55;;;;;;;6.60;3.10;;;11.70;97.30;;;;;;5011079;28;20472;-83
2022/01/02 13:23:21;;;;;;;5.40;3.47;;;11.70;97.30;;;;;;5010219;28;20545;-83
2022/01/02 13:25:47;;;;;;;7.07;3.53;;;11.70;97.30;;;;;;5010248;28;20234;-84
2022/01/02 13:28:16;;;;;;;8.63;3.90;;;11.70;97.30;;;;;;5009835;28;20412;-84
2022/01/02 13:30:48;;;;;;;5.80;3.43;;;11.80;97.30;;;;;;5010058;28;20447;-83
2022/01/02 13:33:22;;;;;;;14.97;3.53;;;11.80;97.30;;;;;;5010136;28;20420;-84
2022/01/02 13:35:49;;;;;;;8.70;3.83;;;11.80;97.30;;;;;;5008958;28;20851;-82
2022/01/02 13:38:17;;;;;;;5.20;3.27;;;11.80;97.30;;;;;;5011340;28;20408;-85
2022/01/02 13:40:43;;;;;;;9.60;3.73;;;11.80;97.30;;;;;;5005822;28;20445;-84
2022/01/02 13:43:15;;;;;;;18.90;6.77;;;11.80;97.30;;;;;;4996227;28;20554;-82
2022/01/02 13:45:43;;;;;;;32.10;7.23;;;11.80;97.30;;;;;;5008801;28;20425;-82
2022/01/02 13:48:19;;;;;;;24.73;7.43;;;11.80;97.30;;;;;;5007961;28;20989;-83
2022/01/02 13:50:48;;;;;;;9.60;4.33;;;11.80;97.30;;;;;;5009640;28;20531;-84
2022/01/02 13:53:20;;;;;;;11.10;3.67;;;11.80;97.30;;;;;;4995064;28;20400;-83
2022/01/02 13:55:48;;;;;;;19.30;5.23;;;11.70;97.30;;;;;;5010418;28;20420;-83
2022/01/02 13:58:24;;;;;;;7.77;3.47;;;11.80;97.30;;;;;;5010090;28;20450;-83
2022/01/02 14:00:52;;;;;;;12.03;3.10;;;11.80;97.30;;;;;;5011567;28;20505;-84
2022/01/02 14:03:28;;;;;;;29.13;9.70;;;11.80;97.30;;;;;;5009437;28;20420;-84
2022/01/02 14:05:54;;;;;;;7.20;3.57;;;11.80;97.30;;;;;;5009300;28;20440;-84
2022/01/02 14:08:20;;;;;;;6.37;3.30;;;11.80;97.30;;;;;;5009036;28;20538;-83